Time;durP1;ratioP1;P1;durP2;ratioP2;P2;SDS_P1;SDS_P2;PMS_P1;PMS_P2;Temp;Humidity;BMP_temperature;BMP_pressure;BME280_temperature;BME280_humidity;BME280_pressure;Samples;Min_cycle;Max_cycle;Signal;HPM_P1;HPM_P2
2022/10/24 00:00:05;;;;;;;10.87;7.47;;;;;;;-141.28;100.00;49421.56;5135113;27;20198;-78
2022/10/24 00:02:32;;;;;;;10.97;7.43;;;;;;;-141.28;100.00;49419.59;5138076;27;20222;-76
2022/10/24 00:04:59;;;;;;;13.63;8.07;;;;;;;-141.28;100.00;49419.59;5135056;27;20251;-76
2022/10/24 00:07:26;;;;;;;12.57;8.10;;;;;;;-141.28;100.00;49415.69;5131070;27;20661;-79
2022/10/24 00:09:54;;;;;;;12.60;7.77;;;;;;;-141.28;100.00;49399.97;5134676;27;20198;-77
2022/10/24 00:12:22;;;;;;;19.37;8.73;;;;;;;-141.28;100.00;49376.44;5134055;27;20244;-77
2022/10/24 00:14:49;;;;;;;16.73;8.40;;;;;;;-141.28;100.00;49380.34;5134395;27;20210;-75
2022/10/24 00:17:15;;;;;;;12.40;8.70;;;;;;;-141.28;100.00;49348.97;5134635;27;20198;-79
2022/10/24 00:19:43;;;;;;;14.93;8.70;;;;;;;-141.28;100.00;49360.75;5134404;27;20198;-78
2022/10/24 00:22:09;;;;;;;13.63;8.80;;;;;;;-141.28;100.00;49345.03;5134300;27;20206;-79
2022/10/24 00:24:37;;;;;;;15.10;8.40;;;;;;;-141.28;100.00;49347.00;5133636;27;20599;-80
2022/10/24 00:27:04;;;;;;;14.00;8.20;;;;;;;-141.28;100.00;49337.19;5134335;27;20228;-78
2022/10/24 00:29:33;;;;;;;13.13;8.63;;;;;;;-141.28;100.00;49333.25;5134352;27;20202;-78
2022/10/24 00:32:00;;;;;;;12.07;7.73;;;;;;;-141.28;100.00;49341.13;5134373;27;20198;-77
2022/10/24 00:34:28;;;;;;;12.80;7.60;;;;;;;-141.28;100.00;49348.97;5133864;27;20203;-77
2022/10/24 00:36:54;;;;;;;13.07;8.30;;;;;;;-141.28;100.00;49339.16;5134222;27;20207;-76
2022/10/24 00:39:21;;;;;;;13.93;8.10;;;;;;;-141.28;100.00;49352.88;5132196;27;20206;-79
2022/10/24 00:41:49;;;;;;;15.90;9.33;;;;;;;-141.28;100.00;49345.03;5135426;27;20206;-76
2022/10/24 00:44:19;;;;;;;14.73;8.03;;;;;;;-141.28;100.00;49345.03;5136214;27;20655;-76
2022/10/24 00:46:51;;;;;;;18.33;8.03;;;;;;;-141.28;100.00;49352.88;5140461;27;20238;-75
2022/10/24 00:49:24;;;;;;;14.37;7.90;;;;;;;-141.28;100.00;49368.59;5145210;27;20213;-74
2022/10/24 00:51:55;;;;;;;14.03;7.93;;;;;;;-141.28;100.00;49368.59;5145601;27;20209;-75
2022/10/24 00:54:22;;;;;;;12.57;7.63;;;;;;;-141.28;100.00;49368.59;5138413;27;20209;-75
2022/10/24 00:57:00;;;;;;;14.03;7.33;;;;;;;-141.28;100.00;49358.78;5134232;27;20204;-78
2022/10/24 00:59:27;;;;;;;14.23;7.53;;;;;;;-141.28;100.00;49352.88;5135345;27;20278;-74
2022/10/24 01:01:56;;;;;;;17.67;7.23;;;;;;;-141.28;100.00;49345.03;5135808;27;20681;-77
2022/10/24 01:04:23;;;;;;;12.60;7.23;;;;;;;-141.28;100.00;49329.34;5135349;27;20267;-75
2022/10/24 01:07:03;;;;;;;13.87;7.90;;;;;;;-141.28;100.00;49350.94;5133444;27;20282;-77
2022/10/24 01:09:45;;;;;;;14.07;7.67;;;;;;;-141.28;100.00;49374.47;5133695;27;20198;-75
2022/10/24 01:12:26;;;;;;;15.80;7.47;;;;;;;-141.28;100.00;49364.66;5133373;27;20699;-76
2022/10/24 01:15:03;;;;;;;14.80;7.50;;;;;;;-141.28;100.00;49388.22;5133125;27;20727;-77
2022/10/24 01:17:39;;;;;;;12.17;8.20;;;;;;;-141.28;100.00;49368.59;5133187;27;20244;-77
2022/10/24 01:20:56;;;;;;;13.23;6.90;;;;;;;-141.28;100.00;49417.63;5135323;27;20680;-75
2022/10/24 01:23:52;;;;;;;10.13;6.60;;;;;;;-141.28;100.00;49462.78;5035197;28;20606;-76
2022/10/24 01:26:54;;;;;;;10.97;7.07;;;;;;;-141.28;100.00;49458.84;5120409;27;20237;-75
2022/10/24 01:29:33;;;;;;;9.70;6.70;;;;;;;-141.28;100.00;49431.38;5132863;27;20206;-77
2022/10/24 01:32:09;;;;;;;12.10;7.27;;;;;;;-141.28;100.00;49360.75;5120086;27;20206;-79
2022/10/24 01:34:44;;;;;;;12.93;7.43;;;;;;;-141.28;100.00;49321.50;5133611;27;20271;-76
2022/10/24 01:37:18;;;;;;;14.47;8.50;;;;;;;-141.28;100.00;49272.44;5132289;27;20194;-77
2022/10/24 01:39:50;;;;;;;14.47;8.23;;;;;;;-141.28;100.00;49270.47;5133298;27;20205;-79
2022/10/24 01:42:22;;;;;;;17.00;7.83;;;;;;;-141.28;100.00;49288.13;5133056;27;20202;-76
2022/10/24 01:44:56;;;;;;;17.43;7.90;;;;;;;-141.28;100.00;49294.03;5133668;27;20624;-79
2022/10/24 01:47:28;;;;;;;13.20;8.23;;;;;;;-141.28;100.00;49268.50;5120931;27;20294;-77
2022/10/24 01:50:00;;;;;;;14.57;7.27;;;;;;;-141.28;100.00;49237.13;5132863;27;20198;-76
2022/10/24 01:52:31;;;;;;;10.73;6.97;;;;;;;-141.28;100.00;49258.69;5133038;27;20209;-75
2022/10/24 01:54:59;;;;;;;11.53;6.57;;;;;;;-141.28;100.00;49254.78;5132678;27;20717;-78
2022/10/24 01:57:27;;;;;;;10.27;5.93;;;;;;;-141.28;100.00;49274.41;5132940;27;20201;-76
2022/10/24 01:59:56;;;;;;;14.60;6.90;;;;;;;-141.28;100.00;49282.25;5132719;27;20194;-75
2022/10/24 02:02:29;;;;;;;9.90;6.20;;;;;;;-141.28;100.00;49280.28;5132529;27;20229;-74
2022/10/24 02:05:01;;;;;;;10.67;6.10;;;;;;;-141.28;100.00;49299.91;5132872;28;20198;-78
2022/10/24 02:07:30;;;;;;;10.27;6.23;;;;;;;-141.28;100.00;49317.56;5132799;28;20226;-78
2022/10/24 02:10:03;;;;;;;15.13;6.47;;;;;;;-141.28;100.00;49317.56;5132666;28;20290;-76
2022/10/24 02:12:31;;;;;;;9.30;6.30;;;;;;;-141.28;100.00;49303.84;5132511;28;20656;-78
2022/10/24 02:15:04;;;;;;;9.67;6.47;;;;;;;-141.28;100.00;49337.19;5132368;28;20202;-75
2022/10/24 02:17:31;;;;;;;11.00;7.03;;;;;;;-141.28;100.00;49339.16;5132675;28;20206;-76
2022/10/24 02:19:59;;;;;;;12.60;7.43;;;;;;;-141.28;100.00;49323.44;5132777;28;20198;-77
2022/10/24 02:22:30;;;;;;;11.00;7.27;;;;;;;-141.28;100.00;49337.19;5132190;28;20202;-77
2022/10/24 02:25:03;;;;;;;16.57;8.17;;;;;;;-141.28;100.00;49337.19;5132894;28;20206;-79
2022/10/24 02:27:33;;;;;;;16.63;8.40;;;;;;;-141.28;100.00;49333.25;5131935;28;20226;-77
2022/10/24 02:30:07;;;;;;;16.87;9.07;;;;;;;-141.28;100.00;49343.06;5132570;28;20202;-79
2022/10/24 02:32:38;;;;;;;11.73;8.00;;;;;;;-141.28;100.00;49335.22;5132131;28;20266;-76
2022/10/24 02:35:08;;;;;;;11.17;7.70;;;;;;;-141.28;100.00;49337.19;5132237;28;20591;-75
2022/10/24 02:37:39;;;;;;;10.47;7.00;;;;;;;-141.28;100.00;49364.66;5119724;28;20651;-76
2022/10/24 02:40:09;;;;;;;9.40;6.27;;;;;;;-141.28;100.00;49360.75;5135680;28;20263;-76
2022/10/24 02:42:39;;;;;;;11.47;6.53;;;;;;;-141.28;100.00;49364.66;5132428;28;20206;-77
2022/10/24 02:45:12;;;;;;;14.70;7.23;;;;;;;-141.28;100.00;49378.41;5131969;28;20199;-75
2022/10/24 02:47:42;;;;;;;17.83;7.03;;;;;;;-141.28;100.00;49362.69;5132038;28;20708;-76
2022/10/24 02:50:10;;;;;;;14.03;6.67;;;;;;;-141.28;100.00;49317.56;5132148;28;20198;-75
2022/10/24 02:52:37;;;;;;;14.83;6.47;;;;;;;-141.28;100.00;49356.81;5132116;28;20202;-80
2022/10/24 02:55:06;;;;;;;13.60;7.10;;;;;;;-141.28;100.00;49356.81;5131836;28;20195;-77
2022/10/24 02:57:33;;;;;;;12.47;7.03;;;;;;;-141.28;100.00;49376.44;5132440;28;20213;-78
2022/10/24 03:00:00;;;;;;;15.70;7.30;;;;;;;-141.28;100.00;49376.44;5131851;28;20199;-80
2022/10/24 03:02:29;;;;;;;17.47;7.33;;;;;;;-141.28;100.00;49380.34;5133181;27;20229;-76
2022/10/24 03:04:56;;;;;;;12.33;7.80;;;;;;;-141.28;100.00;49398.03;5135578;27;20702;-77
2022/10/24 03:07:23;;;;;;;11.17;6.70;;;;;;;-141.28;100.00;49396.06;5136216;27;20234;-76
2022/10/24 03:09:49;;;;;;;14.07;7.07;;;;;;;-141.28;100.00;49396.06;5135246;27;20200;-76
2022/10/24 03:12:17;;;;;;;9.27;6.27;;;;;;;-141.28;100.00;49411.75;5135297;27;20234;-78
2022/10/24 03:14:45;;;;;;;11.17;6.57;;;;;;;-141.28;100.00;49407.84;5135219;27;20195;-78
2022/10/24 03:17:12;;;;;;;18.87;9.47;;;;;;;-141.28;100.00;49427.44;5135897;27;20209;-75
2022/10/24 03:19:40;;;;;;;16.27;9.40;;;;;;;-141.28;100.00;49415.69;5121849;27;20194;-76
2022/10/24 03:22:07;;;;;;;18.10;9.07;;;;;;;-141.28;100.00;49427.44;5135929;27;20262;-78
2022/10/24 03:24:34;;;;;;;12.03;8.27;;;;;;;-141.28;100.00;49415.69;5135361;27;20255;-76
2022/10/24 03:27:01;;;;;;;20.57;9.93;;;;;;;-141.28;100.00;49435.31;5135629;27;20282;-77
2022/10/24 03:29:28;;;;;;;17.87;11.17;;;;;;;-141.28;100.00;49439.22;5135460;27;20263;-75
2022/10/24 03:31:54;;;;;;;37.10;24.63;;;;;;;-141.28;100.00;49460.81;5135101;27;20209;-75
2022/10/24 03:34:21;;;;;;;41.93;24.40;;;;;;;-141.28;100.00;49454.94;5135111;27;20636;-75
2022/10/24 03:36:49;;;;;;;39.30;24.37;;;;;;;-141.28;100.00;49458.84;5134854;27;20198;-78
2022/10/24 03:39:17;;;;;;;37.17;21.47;;;;;;;-141.28;100.00;49470.63;5134818;27;20198;-77
2022/10/24 03:41:44;;;;;;;31.17;19.77;;;;;;;-141.28;100.00;49472.59;5135119;27;20712;-75
2022/10/24 03:44:11;;;;;;;27.37;18.10;;;;;;;-141.28;100.00;49482.41;5135351;27;20328;-78
2022/10/24 03:46:38;;;;;;;25.90;14.87;;;;;;;-141.28;100.00;49500.06;5134763;27;20229;-78
2022/10/24 03:49:05;;;;;;;19.17;11.57;;;;;;;-141.28;100.00;49507.91;5134893;27;20198;-79
2022/10/24 03:51:31;;;;;;;19.87;9.83;;;;;;;-141.28;100.00;49503.97;5134495;27;20719;-77
2022/10/24 03:54:00;;;;;;;20.70;10.23;;;;;;;-141.28;100.00;49505.94;5135277;27;20583;-78
2022/10/24 03:56:27;;;;;;;26.60;10.73;;;;;;;-141.28;100.00;49513.78;5134406;27;20202;-79
2022/10/24 03:58:54;;;;;;;19.20;9.83;;;;;;;-141.28;100.00;49527.53;5136739;27;20195;-77
2022/10/24 04:01:22;;;;;;;17.47;11.93;;;;;;;-141.28;100.00;49509.88;5134397;27;20608;-75
2022/10/24 04:03:49;;;;;;;25.30;10.90;;;;;;;-141.28;100.00;49535.38;5134537;27;20259;-77
2022/10/24 04:06:16;;;;;;;19.23;9.37;;;;;;;-141.28;100.00;49556.97;5134042;27;20594;-78
2022/10/24 04:08:43;;;;;;;13.70;8.10;;;;;;;-141.28;100.00;49503.97;5134301;27;20289;-75
2022/10/24 04:11:12;;;;;;;46.03;10.07;;;;;;;-141.28;100.00;49564.81;5134453;27;20264;-75
2022/10/24 04:13:39;;;;;;;31.90;9.60;;;;;;;-141.28;100.00;49580.50;5134295;27;20702;-75
2022/10/24 04:16:07;;;;;;;18.73;7.97;;;;;;;-141.28;100.00;49570.69;5135209;27;20228;-75
2022/10/24 04:18:34;;;;;;;16.10;8.53;;;;;;;-141.28;100.00;49598.16;5134828;27;20221;-77
2022/10/24 04:21:02;;;;;;;18.37;8.57;;;;;;;-141.28;100.00;49580.50;5136074;27;20585;-76
2022/10/24 04:23:33;;;;;;;17.77;8.60;;;;;;;-141.28;100.00;49584.44;5134556;27;20259;-76
2022/10/24 04:26:00;;;;;;;22.07;9.60;;;;;;;-141.28;100.00;49576.59;5134499;27;20292;-80
2022/10/24 04:28:29;;;;;;;23.43;8.40;;;;;;;-141.28;100.00;49588.34;5134182;27;20700;-77
2022/10/24 04:30:56;;;;;;;20.30;8.80;;;;;;;-141.28;100.00;49570.69;5134139;27;20725;-77
2022/10/24 04:33:22;;;;;;;43.13;10.50;;;;;;;-141.28;100.00;49568.75;5134299;27;20217;-75
2022/10/24 04:35:50;;;;;;;40.30;13.17;;;;;;;-141.28;100.00;49600.13;5133940;27;20202;-73
2022/10/24 04:38:18;;;;;;;29.43;11.93;;;;;;;-141.28;100.00;49596.22;5134149;27;20202;-77
2022/10/24 04:40:46;;;;;;;40.67;13.07;;;;;;;-141.28;100.00;49637.41;5133620;27;20602;-78
2022/10/24 04:43:13;;;;;;;29.53;10.87;;;;;;;-141.28;100.00;49643.31;5134023;27;20262;-76
2022/10/24 04:45:42;;;;;;;27.17;10.07;;;;;;;-141.28;100.00;49643.31;5133663;27;20625;-76
2022/10/24 04:48:08;;;;;;;23.07;10.27;;;;;;;-141.28;100.00;49647.22;5133500;27;20233;-76
2022/10/24 04:50:36;;;;;;;19.20;9.23;;;;;;;-141.28;100.00;49645.28;5133815;27;20578;-78
2022/10/24 04:53:03;;;;;;;19.70;10.40;;;;;;;-141.28;100.00;49651.16;5133615;27;20206;-79
2022/10/24 04:55:30;;;;;;;26.47;13.63;;;;;;;-141.28;100.00;49662.94;5133765;27;20202;-76
2022/10/24 04:57:56;;;;;;;47.70;14.10;;;;;;;-141.28;100.00;49682.56;5133449;27;20209;-76
2022/10/24 05:00:23;;;;;;;47.33;17.37;;;;;;;-141.28;100.00;49698.25;5133467;27;20194;-76
2022/10/24 05:02:51;;;;;;;50.87;16.87;;;;;;;-141.28;100.00;49706.09;5133673;27;20600;-76
2022/10/24 05:05:19;;;;;;;52.50;16.57;;;;;;;-141.28;100.00;49708.06;5133392;27;20201;-76
2022/10/24 05:07:46;;;;;;;42.10;14.40;;;;;;;-141.28;100.00;49725.72;5132865;27;20270;-78
2022/10/24 05:10:13;;;;;;;50.27;13.47;;;;;;;-141.28;100.00;49717.88;5133636;27;20285;-75
2022/10/24 05:12:40;;;;;;;39.73;14.47;;;;;;;-141.28;100.00;49727.69;5133114;27;20671;-76
2022/10/24 05:15:09;;;;;;;55.13;15.43;;;;;;;-141.28;100.00;49749.28;5133662;27;20201;-76
2022/10/24 05:17:36;;;;;;;74.97;16.30;;;;;;;-141.28;100.00;49763.00;5134815;27;20202;-75
2022/10/24 05:20:06;;;;;;;52.30;15.13;;;;;;;-141.28;100.00;49784.59;5133527;27;20194;-78
2022/10/24 05:22:32;;;;;;;42.30;13.53;;;;;;;-141.28;100.00;49817.97;5133164;27;20289;-77
2022/10/24 05:25:00;;;;;;;58.87;14.60;;;;;;;-141.28;100.00;49835.63;5132639;27;20224;-77
2022/10/24 05:27:26;;;;;;;42.67;13.57;;;;;;;-141.28;100.00;49874.88;5132481;27;20226;-76
2022/10/24 05:29:54;;;;;;;52.73;12.80;;;;;;;-141.28;100.00;49953.38;5133206;27;20654;-77
2022/10/24 05:32:22;;;;;;;39.77;12.23;;;;;;;-141.28;100.00;50020.09;5132872;27;20250;-75
2022/10/24 05:34:49;;;;;;;36.30;12.30;;;;;;;-141.28;100.00;50086.84;5132568;27;20227;-78
2022/10/24 05:37:17;;;;;;;40.17;11.37;;;;;;;-141.28;100.00;50141.78;5132354;27;20202;-77
2022/10/24 05:39:44;;;;;;;44.00;11.17;;;;;;;-141.28;100.00;50251.69;5133089;27;20194;-74
2022/10/24 05:42:11;;;;;;;31.33;12.43;;;;;;;-141.28;100.00;50338.06;5132185;27;20563;-76
2022/10/24 05:44:38;;;;;;;27.00;11.77;;;;;;;-141.28;100.00;50416.56;5133159;27;20729;-77
2022/10/24 05:47:05;;;;;;;36.47;12.73;;;;;;;-141.28;100.00;50459.75;5141432;27;20229;-77
2022/10/24 05:49:32;;;;;;;30.40;11.07;;;;;;;-141.28;100.00;50447.97;5144338;27;20227;-74
2022/10/24 05:51:59;;;;;;;36.00;12.43;;;;;;;-141.28;100.00;50518.66;5142156;27;20263;-74
2022/10/24 05:54:28;;;;;;;41.83;12.37;;;;;;;-141.28;100.00;50593.22;5145639;27;20206;-75
2022/10/24 05:56:55;;;;;;;43.50;11.77;;;;;;;-141.28;100.00;50656.06;5140356;27;20197;-75
2022/10/24 05:59:21;;;;;;;45.00;12.90;;;;;;;-141.28;100.00;50628.56;5140833;27;20206;-76
2022/10/24 06:01:48;;;;;;;40.43;14.83;;;;;;;-141.28;100.00;50734.56;5134073;27;20238;-76
2022/10/24 06:04:15;;;;;;;45.77;13.00;;;;;;;-141.28;100.00;50813.09;5134125;27;20271;-80
2022/10/24 06:06:44;;;;;;;42.90;11.30;;;;;;;-141.28;100.00;50871.97;5132885;28;20205;-77
2022/10/24 06:09:13;;;;;;;23.20;9.97;;;;;;;-141.28;100.00;50919.09;5132890;28;20205;-78
2022/10/24 06:11:42;;;;;;;22.80;12.20;;;;;;;-141.28;100.00;51032.97;5132272;28;20238;-76
2022/10/24 06:14:09;;;;;;;30.63;12.00;;;;;;;-141.28;100.00;51111.50;5132395;28;20285;-75
2022/10/24 06:16:36;;;;;;;41.37;21.87;;;;;;;-141.28;100.00;51091.84;5132522;28;20202;-79
2022/10/24 06:19:04;;;;;;;42.90;22.10;;;;;;;-141.28;100.00;50958.38;5132279;28;20202;-77
2022/10/24 06:21:30;;;;;;;33.30;16.20;;;;;;;-141.28;100.00;50974.06;5131894;28;20245;-77
2022/10/24 06:23:57;;;;;;;35.00;14.97;;;;;;;-141.28;100.00;50905.34;5132405;28;20220;-76
2022/10/24 06:26:25;;;;;;;38.87;16.07;;;;;;;-141.28;100.00;50832.72;5131922;28;20270;-76
2022/10/24 06:28:54;;;;;;;28.77;15.47;;;;;;;-141.28;100.00;50777.75;5131962;28;20258;-79
2022/10/24 06:31:21;;;;;;;27.03;13.87;;;;;;;-141.28;100.00;50773.81;5132189;28;20230;-75
2022/10/24 06:33:49;;;;;;;38.97;13.03;;;;;;;-141.28;100.00;50730.66;5133410;28;20258;-76
2022/10/24 06:36:16;;;;;;;30.53;12.53;;;;;;;-141.28;100.00;50744.38;5134190;27;20198;-77
2022/10/24 06:38:43;;;;;;;34.70;14.47;;;;;;;-141.28;100.00;50722.78;5136145;27;20209;-76
2022/10/24 06:41:13;;;;;;;34.07;13.67;;;;;;;-141.28;100.00;50724.75;5136921;27;20198;-74
2022/10/24 06:43:41;;;;;;;35.63;14.07;;;;;;;-141.28;100.00;50687.47;5136236;27;20206;-79
2022/10/24 06:46:10;;;;;;;27.90;13.70;;;;;;;-141.28;100.00;50663.91;5136716;27;20289;-76
2022/10/24 06:48:38;;;;;;;25.60;13.90;;;;;;;-141.28;100.00;50652.13;5138437;27;20290;-75
2022/10/24 06:51:05;;;;;;;29.97;13.97;;;;;;;-141.28;100.00;50601.09;5145748;27;20251;-75
2022/10/24 06:53:33;;;;;;;31.10;15.40;;;;;;;-141.28;100.00;50514.72;5148246;27;20202;-76
2022/10/24 06:56:00;;;;;;;41.70;27.67;;;;;;;-141.28;100.00;50518.66;5147278;27;20198;-74
2022/10/24 06:58:31;;;;;;;44.93;29.00;;;;;;;-141.28;100.00;50451.91;5147603;27;20271;-75
2022/10/24 07:00:57;;;;;;;36.50;24.90;;;;;;;-141.28;100.00;50459.75;5138172;27;20289;-74
2022/10/24 07:03:27;;;;;;;48.53;26.23;;;;;;;-141.28;100.00;50495.09;5136400;27;20202;-77
2022/10/24 07:05:54;;;;;;;41.47;26.87;;;;;;;-141.28;100.00;50428.34;5138858;27;20672;-76
2022/10/24 07:08:21;;;;;;;40.17;23.83;;;;;;;-141.28;100.00;50400.88;5136746;27;20222;-76
2022/10/24 07:10:47;;;;;;;32.90;21.70;;;;;;;-141.28;100.00;50377.31;5135616;27;20209;-77
2022/10/24 07:13:14;;;;;;;30.83;15.83;;;;;;;-141.28;100.00;50279.19;5123465;27;20205;-80
2022/10/24 07:15:43;;;;;;;33.10;17.40;;;;;;;-141.28;100.00;50259.56;5135701;27;20206;-77
2022/10/24 07:18:15;;;;;;;37.00;18.40;;;;;;;-141.28;100.00;50192.81;5122583;27;20210;-75
2022/10/24 07:20:43;;;;;;;29.23;16.03;;;;;;;-141.28;100.00;50275.25;5135403;27;20194;-76
2022/10/24 07:23:10;;;;;;;35.83;17.23;;;;;;;-141.28;100.00;50263.47;5135532;27;20199;-79
2022/10/24 07:25:38;;;;;;;33.77;15.40;;;;;;;-141.28;100.00;50298.81;5134985;27;20557;-76
2022/10/24 07:28:05;;;;;;;26.13;15.53;;;;;;;-141.28;100.00;50230.13;5135184;27;20240;-79
2022/10/24 07:30:32;;;;;;;35.03;16.67;;;;;;;-141.28;100.00;50383.22;5134830;27;20285;-78
2022/10/24 07:32:59;;;;;;;31.83;16.33;;;;;;;-141.28;100.00;50510.78;5135301;27;20202;-76
2022/10/24 07:35:27;;;;;;;46.07;17.67;;;;;;;-141.28;100.00;50538.28;5134765;27;20213;-77
2022/10/24 07:37:55;;;;;;;30.00;16.70;;;;;;;-141.28;100.00;50522.56;5136685;27;20215;-75
2022/10/24 07:40:22;;;;;;;36.00;16.33;;;;;;;-141.28;100.00;50181.03;5141068;27;20210;-75
2022/10/24 07:42:49;;;;;;;29.70;15.50;;;;;;;-141.28;100.00;50271.31;5135559;27;20293;-79
2022/10/24 07:45:16;;;;;;;28.23;15.40;;;;;;;-141.28;100.00;50514.72;5134766;27;20207;-78
2022/10/24 07:47:43;;;;;;;36.63;16.70;;;;;;;-141.28;100.00;50532.38;5134487;27;20298;-77
2022/10/24 07:50:09;;;;;;;37.30;15.37;;;;;;;-141.28;100.00;50491.16;5121811;27;20543;-76
2022/10/24 07:52:36;;;;;;;37.83;15.07;;;;;;;-141.28;100.00;50520.59;5137763;27;20213;-77
2022/10/24 07:55:06;;;;;;;41.17;15.70;;;;;;;-141.28;100.00;50500.97;5137354;27;20190;-78
2022/10/24 07:57:33;;;;;;;35.33;17.33;;;;;;;-141.28;100.00;50534.34;5133669;27;20656;-75
2022/10/24 07:59:59;;;;;;;42.07;23.80;;;;;;;-141.28;100.00;50467.59;5134409;27;20206;-77
2022/10/24 08:02:27;;;;;;;49.33;19.57;;;;;;;-141.28;100.00;50420.50;5134610;27;20214;-78
2022/10/24 08:04:53;;;;;;;40.00;16.80;;;;;;;-141.28;100.00;50373.38;5134126;27;20752;-76
2022/10/24 08:07:20;;;;;;;31.33;15.77;;;;;;;-141.28;100.00;50298.81;5117645;27;20210;-77
2022/10/24 08:09:50;;;;;;;44.87;14.60;;;;;;;-141.28;100.00;50232.06;5133969;27;20251;-76
2022/10/24 08:12:18;;;;;;;27.43;14.40;;;;;;;-141.28;100.00;50090.75;5134106;27;20222;-76
2022/10/24 08:14:45;;;;;;;29.77;14.17;;;;;;;-141.28;100.00;50157.50;5134009;27;20306;-78
2022/10/24 08:17:12;;;;;;;35.27;13.93;;;;;;;-141.28;100.00;50071.13;5134119;27;20210;-79
2022/10/24 08:19:40;;;;;;;24.60;11.10;;;;;;;-141.28;100.00;50035.81;5133892;27;20206;-78
2022/10/24 08:22:08;;;;;;;33.97;12.10;;;;;;;-141.28;100.00;49984.78;5133762;27;20581;-74
2022/10/24 08:24:36;;;;;;;24.40;10.90;;;;;;;-141.28;100.00;49927.88;5133612;27;20194;-75
2022/10/24 08:27:02;;;;;;;30.73;10.87;;;;;;;-141.28;100.00;49766.94;5133465;27;20255;-75
2022/10/24 08:29:31;;;;;;;31.00;11.10;;;;;;;-141.28;100.00;50149.63;5133592;27;20234;-74
2022/10/24 08:31:57;;;;;;;28.87;11.43;;;;;;;-141.28;100.00;49788.53;5133529;27;20202;-75
2022/10/24 08:34:25;;;;;;;21.30;10.20;;;;;;;-141.28;100.00;49713.94;5133458;27;20210;-79
2022/10/24 08:36:52;;;;;;;30.40;11.70;;;;;;;-141.28;100.00;49792.44;5133517;27;20202;-76
2022/10/24 08:39:20;;;;;;;27.77;11.00;;;;;;;-141.28;100.00;49870.94;5133382;27;20259;-79
2022/10/24 08:41:53;;;;;;;23.63;9.87;;;;;;;-141.28;100.00;49890.56;5133148;27;20202;-78
2022/10/24 08:44:27;;;;;;;27.93;9.57;;;;;;;-141.28;100.00;49925.91;5133336;27;20233;-77
2022/10/24 08:47:01;;;;;;;25.30;9.70;;;;;;;-141.28;100.00;50067.22;5134305;27;20213;-80
2022/10/24 08:49:33;;;;;;;20.90;9.53;;;;;;;-141.28;100.00;50075.06;5133728;27;20244;-77
2022/10/24 08:52:04;;;;;;;22.30;8.70;;;;;;;-141.28;100.00;50016.19;5133584;27;20574;-78
2022/10/24 08:54:37;;;;;;;23.70;8.47;;;;;;;-141.28;100.00;49902.34;5133972;27;20263;-77
2022/10/24 08:57:05;;;;;;;20.30;8.43;;;;;;;-141.28;100.00;49696.28;5120484;27;20729;-75
2022/10/24 08:59:35;;;;;;;19.03;8.30;;;;;;;-141.28;100.00;49590.31;5140248;27;20556;-77
2022/10/24 09:02:12;;;;;;;21.83;8.13;;;;;;;-141.28;100.00;49717.88;5141973;27;20217;-75
2022/10/24 09:04:47;;;;;;;24.33;7.73;;;;;;;-141.28;100.00;49545.19;5143005;27;20270;-74
2022/10/24 09:07:18;;;;;;;23.30;8.90;;;;;;;-141.28;100.00;49376.44;5141586;27;20200;-76
2022/10/24 09:09:49;;;;;;;20.83;7.63;;;;;;;-141.28;100.00;49447.06;5140317;27;20701;-78
2022/10/24 09:12:18;;;;;;;19.60;7.20;;;;;;;-141.28;100.00;49215.53;5134659;27;20247;-76
2022/10/24 09:14:52;;;;;;;21.77;6.73;;;;;;;-141.28;100.00;49290.09;5136287;27;20228;-76
2022/10/24 09:17:24;;;;;;;17.27;6.97;;;;;;;-141.28;100.00;49427.44;5133476;27;20633;-77
2022/10/24 09:19:55;;;;;;;17.60;6.17;;;;;;;-141.28;100.00;49152.75;5120419;27;20219;-77
2022/10/24 09:22:27;;;;;;;14.93;5.80;;;;;;;-141.28;100.00;49223.38;5133458;27;20202;-76
2022/10/24 09:24:56;;;;;;;9.33;6.03;;;;;;;-141.28;100.00;49184.13;5132674;27;20574;-76
2022/10/24 09:27:25;;;;;;;18.27;6.97;;;;;;;-141.28;100.00;49211.59;5132564;27;20266;-79
2022/10/24 09:29:53;;;;;;;14.77;6.57;;;;;;;-141.28;100.00;49176.28;5132617;27;20240;-76
2022/10/24 09:32:25;;;;;;;12.37;5.83;;;;;;;-141.28;100.00;49176.28;5132189;27;20661;-77
2022/10/24 09:34:52;;;;;;;14.43;6.03;;;;;;;-141.28;100.00;49125.28;5133140;27;20289;-77
2022/10/24 09:37:34;;;;;;;22.47;6.77;;;;;;;-141.28;100.00;49086.03;5132400;27;20666;-78
2022/10/24 09:40:17;;;;;;;17.87;5.83;;;;;;;-141.28;100.00;49050.72;5133194;27;20207;-77
2022/10/24 09:42:51;;;;;;;13.00;6.13;;;;;;;-141.28;100.00;49027.19;5122119;27;20199;-79
2022/10/24 09:45:25;;;;;;;13.50;6.20;;;;;;;-141.28;100.00;49027.19;5132619;27;20199;-77
2022/10/24 09:47:57;;;;;;;12.97;4.40;;;;;;;-141.28;100.00;48997.75;5133235;27;20201;-78
2022/10/24 09:50:25;;;;;;;12.43;4.70;;;;;;;-141.28;100.00;48970.28;5118871;27;20208;-78
2022/10/24 09:52:56;;;;;;;12.23;5.43;;;;;;;-141.28;100.00;49015.41;5132389;27;20707;-79
2022/10/24 09:55:27;;;;;;;11.97;5.37;;;;;;;-141.28;100.00;48982.03;5132174;27;20198;-77
2022/10/24 09:57:58;;;;;;;15.40;5.40;;;;;;;-141.28;100.00;49025.22;5133069;27;20227;-78
2022/10/24 10:00:27;;;;;;;13.67;4.67;;;;;;;-141.28;100.00;49082.13;5133045;27;20224;-76
2022/10/24 10:03:01;;;;;;;9.73;5.43;;;;;;;-141.28;100.00;49025.22;5132073;27;20222;-78
2022/10/24 10:05:45;;;;;;;12.17;5.40;;;;;;;-141.28;100.00;48976.16;5132268;27;20291;-78
2022/10/24 10:08:18;;;;;;;12.20;4.63;;;;;;;-141.28;100.00;48946.72;5128459;28;20259;-79
2022/10/24 10:10:59;;;;;;;11.63;4.67;;;;;;;-141.28;100.00;49015.41;5132432;27;20205;-76
2022/10/24 10:13:27;;;;;;;11.43;4.60;;;;;;;-141.28;100.00;49001.66;5126713;27;20736;-75
2022/10/24 10:15:57;;;;;;;12.10;4.97;;;;;;;-141.28;100.00;48905.53;5139021;27;20201;-75
2022/10/24 10:18:29;;;;;;;12.57;5.03;;;;;;;-141.28;100.00;48985.97;5139000;27;20672;-76
2022/10/24 10:21:09;;;;;;;14.60;4.80;;;;;;;-141.28;95.54;48980.09;5139007;27;20190;-76
2022/10/24 10:23:38;;;;;;;11.70;4.87;;;;;;;-141.28;91.04;48956.53;5139419;27;20246;-78
2022/10/24 10:26:13;;;;;;;15.53;4.83;;;;;;;-141.28;91.89;48968.31;5139098;27;20194;-76
2022/10/24 10:28:45;;;;;;;13.30;4.80;;;;;;;-141.28;89.06;48952.63;5141898;27;20289;-75
2022/10/24 10:31:13;;;;;;;9.37;5.00;;;;;;;-141.28;87.44;48964.38;5138441;27;20194;-75
2022/10/24 10:33:50;;;;;;;15.10;5.10;;;;;;;-141.28;88.19;48948.69;5162314;27;20191;-75
2022/10/24 10:36:22;;;;;;;17.33;5.27;;;;;;;-141.28;85.88;48931.03;5140507;27;20198;-80
2022/10/24 10:38:58;;;;;;;16.03;5.37;;;;;;;-141.28;85.79;48956.53;5139363;27;20229;-79
2022/10/24 10:41:38;;;;;;;11.83;5.60;;;;;;;-141.28;85.58;48944.78;5138404;27;20197;-78
2022/10/24 10:44:24;;;;;;;18.80;6.17;;;;;;;-141.28;83.16;48925.16;5138777;27;20206;-79
2022/10/24 10:47:02;;;;;;;14.90;5.57;;;;;;;-141.28;79.46;48897.69;5126503;27;20310;-78
2022/10/24 10:49:38;;;;;;;18.53;6.07;;;;;;;-141.28;76.65;48936.91;5138644;27;20264;-78
2022/10/24 10:52:11;;;;;;;23.07;6.83;;;;;;;-141.28;74.08;48882.00;5139152;27;20572;-79
2022/10/24 10:54:55;;;;;;;14.83;6.90;;;;;;;-141.28;72.20;48891.78;5142247;27;20191;-76
2022/10/24 10:57:27;;;;;;;14.83;5.43;;;;;;;-141.28;73.40;48897.69;5142359;27;20642;-76
2022/10/24 10:59:58;;;;;;;19.67;6.63;;;;;;;-141.28;71.49;48883.94;5139101;27;20264;-79
2022/10/24 11:03:03;;;;;;;19.23;5.73;;;;;;;-141.28;68.75;48868.25;5138586;27;20227;-77
2022/10/24 11:05:43;;;;;;;11.20;4.80;;;;;;;-141.28;67.68;48846.69;5104288;27;20211;-78
2022/10/24 11:08:30;;;;;;;11.80;5.23;;;;;;;-141.28;67.04;48834.91;5139356;27;20685;-77
2022/10/24 11:11:02;;;;;;;21.80;6.17;;;;;;;-141.28;67.57;48870.22;5138461;27;20200;-80